Time;durP1;ratioP1;P1;durP2;ratioP2;P2;SDS_P1;SDS_P2;PMS_P1;PMS_P2;Temp;Humidity;BMP_temperature;BMP_pressure;BME280_temperature;BME280_humidity;BME280_pressure;Samples;Min_cycle;Max_cycle;Signal;HPM_P1;HPM_P2
2022/07/20 00:02:21;;;;;;;3.25;2.10;;;24.60;67.20;;;;;;5093904;28;20394;-62
2022/07/20 00:04:50;;;;;;;5.53;2.40;;;24.50;67.30;;;;;;5093675;28;20046;-63
2022/07/20 00:07:16;;;;;;;5.38;2.58;;;24.50;67.80;;;;;;5091494;28;20066;-63
2022/07/20 00:12:26;;;;;;;4.80;2.38;;;24.30;68.30;;;;;;5091104;28;20044;-63
2022/07/20 00:14:52;;;;;;;3.90;2.50;;;24.20;68.60;;;;;;5091198;28;20031;-63
2022/07/20 00:17:18;;;;;;;7.07;2.45;;;24.20;69.00;;;;;;5092777;28;20054;-63
2022/07/20 00:19:43;;;;;;;4.07;2.53;;;24.10;69.30;;;;;;5091488;28;20035;-63
2022/07/20 00:22:09;;;;;;;5.50;2.22;;;24.00;69.80;;;;;;5088763;28;20083;-64
2022/07/20 00:24:35;;;;;;;4.43;2.53;;;24.00;71.00;;;;;;5091977;28;20032;-63
2022/07/20 00:27:01;;;;;;;7.30;2.30;;;23.90;70.80;;;;;;5088731;28;20036;-63
2022/07/20 00:29:27;;;;;;;6.13;2.53;;;23.80;70.80;;;;;;5093740;28;20036;-63
2022/07/20 00:31:52;;;;;;;2.72;2.30;;;23.80;71.50;;;;;;5089864;28;20032;-63
2022/07/20 00:34:18;;;;;;;4.65;2.60;;;23.70;72.20;;;;;;5091921;28;20035;-63
2022/07/20 00:36:44;;;;;;;4.70;2.70;;;23.70;72.20;;;;;;5090184;28;20533;-63
2022/07/20 00:39:09;;;;;;;4.55;2.17;;;23.60;72.20;;;;;;5089852;28;20067;-63
2022/07/20 00:41:35;;;;;;;6.03;2.63;;;23.50;72.00;;;;;;5090615;28;20089;-63
2022/07/20 00:44:06;;;;;;;5.18;2.75;;;23.50;71.80;;;;;;5073638;28;20441;-63
2022/07/20 00:46:35;;;;;;;6.88;3.28;;;23.50;72.10;;;;;;5092049;28;20039;-63
2022/07/20 00:49:00;;;;;;;5.35;3.00;;;23.40;72.00;;;;;;5091286;28;20036;-63
2022/07/20 00:51:27;;;;;;;3.05;2.60;;;23.30;71.90;;;;;;5090834;28;20081;-63
2022/07/20 00:53:53;;;;;;;5.15;2.30;;;23.30;72.50;;;;;;5094486;28;20054;-63
2022/07/20 00:56:20;;;;;;;5.63;2.58;;;23.20;72.20;;;;;;5074431;28;20429;-63
2022/07/20 00:58:46;;;;;;;3.80;2.50;;;23.20;72.80;;;;;;5091852;28;20116;-64
2022/07/20 01:01:13;;;;;;;2.85;2.28;;;23.10;72.50;;;;;;5091766;28;20128;-63
2022/07/20 01:03:40;;;;;;;5.10;2.63;;;23.10;72.70;;;;;;5094734;28;20043;-63
2022/07/20 01:06:06;;;;;;;6.45;2.80;;;23.00;72.50;;;;;;5093448;28;20105;-63
2022/07/20 01:08:32;;;;;;;6.57;2.42;;;23.00;72.40;;;;;;5091753;28;20077;-62
2022/07/20 01:10:58;;;;;;;3.55;2.45;;;23.00;72.80;;;;;;5092349;28;20040;-63
2022/07/20 01:13:24;;;;;;;3.40;2.30;;;23.00;72.70;;;;;;5094010;28;20405;-64
2022/07/20 01:15:49;;;;;;;7.45;2.88;;;22.90;72.90;;;;;;5091719;28;20101;-64
2022/07/20 01:18:15;;;;;;;7.15;2.40;;;22.90;72.70;;;;;;5091277;28;20481;-63
2022/07/20 01:20:45;;;;;;;4.07;2.72;;;22.90;73.20;;;;;;5090416;28;20036;-64
2022/07/20 01:23:12;;;;;;;3.55;2.63;;;22.80;72.50;;;;;;5090011;28;20043;-64
2022/07/20 01:25:37;;;;;;;5.00;2.65;;;22.90;72.80;;;;;;5092624;28;20040;-64
2022/07/20 01:28:12;;;;;;;4.05;2.22;;;22.80;73.10;;;;;;5090503;28;20052;-63
2022/07/20 01:30:39;;;;;;;3.65;2.60;;;22.80;73.90;;;;;;5086472;28;20050;-63
2022/07/20 01:33:05;;;;;;;5.40;2.28;;;22.70;74.00;;;;;;5088563;28;20024;-63
2022/07/20 01:35:30;;;;;;;3.22;2.53;;;22.70;73.90;;;;;;5092710;28;20433;-63
2022/07/20 01:37:56;;;;;;;3.08;2.60;;;22.70;74.10;;;;;;5090925;28;20052;-63
2022/07/20 01:40:22;;;;;;;3.28;2.60;;;22.60;74.50;;;;;;5088475;28;20044;-64
2022/07/20 01:42:48;;;;;;;5.80;2.40;;;22.60;75.40;;;;;;5088299;28;20123;-64
2022/07/20 01:45:14;;;;;;;3.33;2.50;;;22.60;75.00;;;;;;5090661;28;20209;-63
2022/07/20 01:47:39;;;;;;;3.95;2.80;;;22.50;75.00;;;;;;5090490;28;20032;-62
2022/07/20 01:50:06;;;;;;;5.78;2.33;;;22.50;75.30;;;;;;5090333;28;20549;-63
2022/07/20 01:52:31;;;;;;;4.78;2.60;;;22.40;75.10;;;;;;5086748;28;20043;-63
2022/07/20 01:54:57;;;;;;;3.38;2.72;;;22.40;74.50;;;;;;5089433;28;20494;-63
2022/07/20 01:57:23;;;;;;;7.05;2.97;;;22.40;74.00;;;;;;5091872;28;20044;-63
2022/07/20 01:59:48;;;;;;;4.47;2.72;;;22.30;74.10;;;;;;5089590;28;20035;-63
2022/07/20 02:02:14;;;;;;;5.30;2.50;;;22.30;74.00;;;;;;5089707;28;20075;-63
2022/07/20 02:04:40;;;;;;;4.40;2.75;;;22.30;73.90;;;;;;5090812;28;20515;-63
2022/07/20 02:07:05;;;;;;;5.95;2.70;;;22.30;74.00;;;;;;5088193;28;20044;-63
2022/07/20 02:09:31;;;;;;;6.35;2.80;;;22.20;73.50;;;;;;5089350;28;20119;-64
2022/07/20 02:11:57;;;;;;;5.75;2.80;;;22.30;73.40;;;;;;5091628;28;20054;-64
2022/07/20 02:14:22;;;;;;;4.50;2.60;;;22.20;73.70;;;;;;5088417;28;20078;-64
2022/07/20 02:16:48;;;;;;;5.50;2.58;;;22.20;73.60;;;;;;5089439;28;20051;-64
2022/07/20 02:19:13;;;;;;;5.45;2.55;;;22.20;73.90;;;;;;5091502;28;20126;-63
2022/07/20 02:21:39;;;;;;;5.40;2.80;;;22.20;73.50;;;;;;5090510;28;20043;-63
2022/07/20 02:24:05;;;;;;;5.38;2.58;;;22.10;73.90;;;;;;5090268;28;20097;-64
2022/07/20 02:26:31;;;;;;;6.30;3.13;;;22.10;73.60;;;;;;5087564;28;20051;-63
2022/07/20 02:28:57;;;;;;;7.55;3.28;;;22.10;73.60;;;;;;5089648;28;20499;-63
2022/07/20 02:31:23;;;;;;;4.05;2.85;;;22.00;73.70;;;;;;5088866;28;20032;-63
2022/07/20 02:33:49;;;;;;;3.15;2.63;;;22.00;73.80;;;;;;5090549;28;20040;-63
2022/07/20 02:36:15;;;;;;;3.50;2.80;;;22.00;74.50;;;;;;5089327;28;20127;-63
2022/07/20 02:38:41;;;;;;;4.22;2.88;;;22.00;74.30;;;;;;5089892;28;20047;-64
2022/07/20 02:41:07;;;;;;;4.45;2.65;;;21.90;75.30;;;;;;5090107;28;20040;-63
2022/07/20 02:43:32;;;;;;;4.05;3.15;;;21.90;75.80;;;;;;5090910;28;20055;-63
2022/07/20 02:45:58;;;;;;;3.67;2.75;;;21.80;75.20;;;;;;5090348;28;20040;-64
2022/07/20 02:48:24;;;;;;;4.63;3.13;;;21.80;75.20;;;;;;5089722;28;20036;-64
2022/07/20 02:50:49;;;;;;;5.65;2.30;;;21.80;75.20;;;;;;5091387;28;20044;-62
2022/07/20 02:53:15;;;;;;;3.58;2.60;;;21.70;74.90;;;;;;5090897;28;20529;-63
2022/07/20 02:55:43;;;;;;;5.07;3.00;;;21.70;74.70;;;;;;5088780;28;20039;-63
2022/07/20 02:58:10;;;;;;;5.72;3.10;;;21.70;74.70;;;;;;5089139;28;20051;-63
2022/07/20 03:00:37;;;;;;;4.25;2.80;;;21.70;74.70;;;;;;5098641;28;20047;-63
2022/07/20 03:03:04;;;;;;;3.00;2.67;;;21.70;74.60;;;;;;5094060;28;20044;-63
2022/07/20 03:05:30;;;;;;;5.13;2.80;;;21.60;74.70;;;;;;5092717;28;20419;-64
2022/07/20 03:07:56;;;;;;;20.58;3.60;;;21.60;74.50;;;;;;5092292;28;20102;-62
2022/07/20 03:10:22;;;;;;;18.38;3.55;;;21.60;74.50;;;;;;5092434;28;20031;-63
2022/07/20 03:12:48;;;;;;;7.63;2.97;;;21.60;74.50;;;;;;5091728;28;20633;-63
2022/07/20 03:15:14;;;;;;;4.95;2.85;;;21.60;74.50;;;;;;5093397;28;20136;-63
2022/07/20 03:17:51;;;;;;;7.45;3.60;;;21.60;74.50;;;;;;5092393;28;20050;-62
2022/07/20 03:20:26;;;;;;;5.03;3.00;;;21.50;74.40;;;;;;5092159;28;20053;-63
2022/07/20 03:22:53;;;;;;;6.72;2.65;;;21.50;74.70;;;;;;5091260;28;20094;-62
2022/07/20 03:25:19;;;;;;;6.35;3.45;;;21.50;74.60;;;;;;5093368;28;20036;-63
2022/07/20 03:27:45;;;;;;;5.25;3.35;;;21.50;75.40;;;;;;5091847;28;20114;-62
2022/07/20 03:30:12;;;;;;;4.72;3.13;;;21.50;74.40;;;;;;5092126;28;20035;-63
2022/07/20 03:32:37;;;;;;;3.58;3.15;;;21.50;74.40;;;;;;5091924;28;21768;-63
2022/07/20 03:35:04;;;;;;;4.18;2.83;;;21.50;74.20;;;;;;5088926;28;20086;-62
2022/07/20 03:37:29;;;;;;;6.53;3.22;;;21.50;74.30;;;;;;5089013;28;20101;-63
2022/07/20 03:39:55;;;;;;;4.40;3.35;;;21.50;74.00;;;;;;5092861;28;20079;-63
2022/07/20 03:42:21;;;;;;;5.03;2.90;;;21.50;74.10;;;;;;5090882;28;20086;-62
2022/07/20 03:44:47;;;;;;;5.32;3.10;;;21.50;74.00;;;;;;5091421;28;20044;-63
2022/07/20 03:47:13;;;;;;;4.95;3.03;;;21.50;74.00;;;;;;5093640;28;20405;-63
2022/07/20 03:49:38;;;;;;;6.13;3.15;;;21.40;74.30;;;;;;5091448;28;20034;-63
2022/07/20 03:52:05;;;;;;;2.97;2.67;;;21.40;75.30;;;;;;5090905;28;20118;-63
2022/07/20 03:54:30;;;;;;;4.45;3.78;;;21.40;75.00;;;;;;5092132;28;20028;-63
2022/07/20 03:56:56;;;;;;;5.40;3.15;;;21.30;75.00;;;;;;5090625;28;20040;-62
2022/07/20 03:59:22;;;;;;;3.92;3.03;;;21.30;74.70;;;;;;5093201;28;20584;-63
2022/07/20 04:01:48;;;;;;;9.73;3.80;;;21.30;75.10;;;;;;5092750;28;20128;-62
2022/07/20 04:04:13;;;;;;;5.88;3.35;;;21.30;75.40;;;;;;5091595;28;20299;-64
2022/07/20 04:06:39;;;;;;;6.00;3.53;;;21.30;75.70;;;;;;5092601;28;20406;-62
2022/07/20 04:09:04;;;;;;;8.25;3.13;;;21.30;75.60;;;;;;5091498;28;20044;-63
2022/07/20 04:11:30;;;;;;;4.68;3.20;;;21.20;76.00;;;;;;5090938;28;20032;-63
2022/07/20 04:13:56;;;;;;;5.25;3.08;;;21.20;76.00;;;;;;5092650;28;20038;-63
2022/07/20 04:16:21;;;;;;;6.93;3.00;;;21.20;76.10;;;;;;5092843;28;20111;-62
2022/07/20 04:18:47;;;;;;;6.88;2.80;;;21.30;76.30;;;;;;5093248;28;20047;-62
2022/07/20 04:21:14;;;;;;;4.72;2.92;;;21.30;76.20;;;;;;5091439;28;20032;-63
2022/07/20 04:23:40;;;;;;;5.60;3.03;;;21.30;76.00;;;;;;5091857;28;20044;-63
2022/07/20 04:26:06;;;;;;;5.30;3.22;;;21.40;75.80;;;;;;5092751;28;20394;-63
2022/07/20 04:28:32;;;;;;;11.77;3.47;;;21.50;75.60;;;;;;5095146;28;20115;-62
2022/07/20 04:30:57;;;;;;;5.25;3.50;;;21.50;75.30;;;;;;5092005;28;20067;-63
2022/07/20 04:33:23;;;;;;;8.30;3.55;;;21.60;75.00;;;;;;5093489;28;20036;-63
2022/07/20 04:35:49;;;;;;;7.60;3.42;;;21.70;74.70;;;;;;5091666;28;20055;-64
2022/07/20 04:38:17;;;;;;;6.72;3.70;;;21.80;74.50;;;;;;5092132;28;20052;-63
2022/07/20 04:40:43;;;;;;;5.03;3.30;;;21.80;74.20;;;;;;5090832;28;20509;-63
2022/07/20 04:43:09;;;;;;;6.72;3.22;;;21.90;74.30;;;;;;5089647;28;20452;-63
2022/07/20 04:45:35;;;;;;;4.20;2.95;;;21.90;74.10;;;;;;5092240;28;20039;-63
2022/07/20 04:48:00;;;;;;;6.32;3.42;;;22.00;73.90;;;;;;5090797;28;20089;-63
2022/07/20 04:50:26;;;;;;;6.07;2.90;;;22.00;73.70;;;;;;5095791;28;20097;-63
2022/07/20 04:52:52;;;;;;;6.78;3.28;;;22.10;73.70;;;;;;5093155;28;20516;-63
2022/07/20 04:55:17;;;;;;;5.18;3.13;;;22.10;73.60;;;;;;5091002;28;20044;-63
2022/07/20 04:57:43;;;;;;;6.10;3.58;;;22.20;73.60;;;;;;5073310;28;20101;-62
2022/07/20 05:00:10;;;;;;;7.90;3.28;;;22.20;73.50;;;;;;5090292;28;20505;-63
2022/07/20 05:02:36;;;;;;;4.50;3.17;;;22.30;74.00;;;;;;5090500;28;20052;-63
2022/07/20 05:05:02;;;;;;;3.80;2.95;;;22.30;73.80;;;;;;5089280;28;20394;-63
2022/07/20 05:07:28;;;;;;;6.03;3.17;;;22.40;74.10;;;;;;5090192;28;20046;-63
2022/07/20 05:09:54;;;;;;;4.40;2.75;;;22.40;74.50;;;;;;5091679;28;20156;-63
2022/07/20 05:12:19;;;;;;;3.42;2.70;;;22.40;75.20;;;;;;5089120;28;20518;-63
2022/07/20 05:14:45;;;;;;;4.72;2.80;;;22.50;75.00;;;;;;5091604;28;20039;-63
2022/07/20 05:17:11;;;;;;;4.05;2.70;;;22.50;75.80;;;;;;5090552;28;20040;-62
2022/07/20 05:19:36;;;;;;;3.95;3.00;;;22.60;77.10;;;;;;5089751;28;20063;-63
2022/07/20 05:22:02;;;;;;;4.53;3.00;;;22.60;76.30;;;;;;5092589;28;20043;-62
2022/07/20 05:24:28;;;;;;;4.75;2.95;;;22.70;76.40;;;;;;5090899;28;20394;-63
2022/07/20 05:26:54;;;;;;;7.80;2.97;;;22.80;76.50;;;;;;5088436;28;20044;-63
2022/07/20 05:29:20;;;;;;;5.00;3.88;;;22.90;76.60;;;;;;5106063;27;20047;-63
2022/07/20 05:31:46;;;;;;;4.00;3.00;;;23.00;76.00;;;;;;5091320;28;20036;-62
2022/07/20 05:34:11;;;;;;;4.43;2.78;;;23.10;75.80;;;;;;5090788;28;20032;-62
2022/07/20 05:36:37;;;;;;;7.25;3.70;;;23.20;75.90;;;;;;5091584;28;20145;-64
2022/07/20 05:39:03;;;;;;;4.53;3.55;;;23.30;75.70;;;;;;5086471;28;20044;-63
2022/07/20 05:41:28;;;;;;;7.38;3.45;;;23.40;75.00;;;;;;5088425;28;20408;-64
2022/07/20 05:43:54;;;;;;;7.88;3.67;;;23.50;74.90;;;;;;5115478;27;20047;-62
2022/07/20 05:46:20;;;;;;;7.47;3.17;;;23.50;74.80;;;;;;5089412;28;20032;-64
2022/07/20 05:48:45;;;;;;;7.28;3.67;;;23.60;75.10;;;;;;5090535;28;20379;-63
2022/07/20 05:51:11;;;;;;;7.00;3.33;;;23.60;75.10;;;;;;5091415;28;20032;-63
2022/07/20 05:53:36;;;;;;;7.05;3.28;;;23.70;74.90;;;;;;5092495;28;20079;-62
2022/07/20 05:56:03;;;;;;;7.55;3.97;;;23.80;75.00;;;;;;5089469;28;20123;-63
2022/07/20 05:58:29;;;;;;;4.95;3.63;;;23.90;75.50;;;;;;5093181;28;20490;-63
2022/07/20 06:00:55;;;;;;;7.03;3.58;;;24.00;74.70;;;;;;5090419;28;20043;-62
2022/07/20 06:03:20;;;;;;;6.43;3.30;;;24.10;74.50;;;;;;5090491;28;20096;-63
2022/07/20 06:05:46;;;;;;;6.40;3.15;;;24.20;74.50;;;;;;5090478;28;20081;-62
2022/07/20 06:08:11;;;;;;;3.53;3.22;;;24.40;74.70;;;;;;5090962;28;20040;-63
2022/07/20 06:10:37;;;;;;;6.30;3.42;;;24.40;74.40;;;;;;5089967;28;20516;-62
2022/07/20 06:13:03;;;;;;;6.80;3.72;;;24.40;74.20;;;;;;5091174;28;20156;-62
2022/07/20 06:15:29;;;;;;;4.85;3.20;;;24.60;73.80;;;;;;5088375;28;20430;-64
2022/07/20 06:17:56;;;;;;;8.32;3.95;;;24.60;73.50;;;;;;5092679;28;20052;-63
2022/07/20 06:20:23;;;;;;;4.93;3.53;;;24.60;73.20;;;;;;5091022;28;20047;-63
2022/07/20 06:22:49;;;;;;;5.13;3.20;;;24.70;73.50;;;;;;5089448;28;20043;-63
2022/07/20 06:25:16;;;;;;;6.18;3.92;;;24.80;74.20;;;;;;5089409;28;20036;-63
2022/07/20 06:27:41;;;;;;;5.85;4.15;;;24.90;74.10;;;;;;5089056;28;20047;-63
2022/07/20 06:30:10;;;;;;;7.53;3.63;;;24.80;74.50;;;;;;5089210;28;20111;-63
2022/07/20 06:32:36;;;;;;;7.07;3.72;;;24.90;74.30;;;;;;5090245;28;20062;-63
2022/07/20 06:35:02;;;;;;;6.45;4.05;;;24.90;74.40;;;;;;5092314;28;20078;-63
2022/07/20 06:37:28;;;;;;;6.72;3.97;;;25.00;74.70;;;;;;5093004;28;20125;-63
2022/07/20 06:39:53;;;;;;;6.28;4.05;;;25.00;74.90;;;;;;5094374;28;20028;-63
2022/07/20 06:42:22;;;;;;;6.50;4.03;;;25.10;75.10;;;;;;5094336;28;20036;-63
2022/07/20 06:44:48;;;;;;;9.63;4.43;;;25.20;75.40;;;;;;5093902;28;20166;-63
2022/07/20 06:47:15;;;;;;;8.20;5.18;;;25.30;75.50;;;;;;5097298;28;20118;-63
2022/07/20 06:49:41;;;;;;;8.55;5.38;;;25.40;75.60;;;;;;5094530;27;20360;-63
2022/07/20 06:52:06;;;;;;;10.75;5.80;;;25.40;75.70;;;;;;5096585;28;20044;-64
2022/07/20 06:54:32;;;;;;;9.95;6.05;;;25.40;76.10;;;;;;5093787;28;20505;-63
2022/07/20 06:56:58;;;;;;;7.13;5.22;;;25.40;76.30;;;;;;5126633;27;20501;-64
2022/07/20 06:59:24;;;;;;;9.15;5.32;;;25.60;76.80;;;;;;5090650;28;20054;-63
2022/07/20 07:01:50;;;;;;;11.00;6.78;;;25.70;77.40;;;;;;5091976;28;20121;-63
2022/07/20 07:04:16;;;;;;;12.27;6.50;;;25.80;77.70;;;;;;5093426;28;20046;-64
2022/07/20 07:06:42;;;;;;;11.00;7.05;;;25.90;78.10;;;;;;5091621;28;20036;-64
2022/07/20 07:09:08;;;;;;;12.40;7.82;;;26.00;78.40;;;;;;5094030;28;20062;-63
2022/07/20 07:11:34;;;;;;;12.60;8.63;;;26.10;79.00;;;;;;5090490;28;20032;-64
2022/07/20 07:14:00;;;;;;;18.95;8.98;;;26.20;79.50;;;;;;5091638;28;20123;-63
2022/07/20 07:16:26;;;;;;;16.75;9.95;;;26.20;80.30;;;;;;5091988;28;20135;-63
2022/07/20 07:18:52;;;;;;;13.80;8.98;;;26.10;80.00;;;;;;5092654;28;20040;-63
2022/07/20 07:21:18;;;;;;;19.98;9.48;;;26.20;80.70;;;;;;5088962;28;20536;-63
2022/07/20 07:23:49;;;;;;;16.52;9.95;;;26.30;80.80;;;;;;5092092;28;20040;-63
2022/07/20 07:26:16;;;;;;;12.57;9.00;;;26.30;80.80;;;;;;5090475;28;20032;-63
2022/07/20 07:28:41;;;;;;;13.65;9.60;;;26.30;81.20;;;;;;5090468;28;20036;-63
2022/07/20 07:31:07;;;;;;;18.50;10.07;;;26.30;81.80;;;;;;5090872;28;20105;-63
2022/07/20 07:33:33;;;;;;;13.75;10.43;;;26.50;82.40;;;;;;5092972;28;20407;-63
2022/07/20 07:35:58;;;;;;;19.58;10.45;;;26.50;83.00;;;;;;5091472;28;20056;-63
2022/07/20 07:38:24;;;;;;;25.08;11.77;;;26.60;83.60;;;;;;5122964;27;20056;-63
2022/07/20 07:40:49;;;;;;;18.50;12.05;;;26.70;83.80;;;;;;5094454;28;20039;-63
2022/07/20 07:43:15;;;;;;;19.67;11.68;;;26.80;83.60;;;;;;5120192;27;20044;-63
2022/07/20 07:45:41;;;;;;;24.00;12.40;;;26.90;83.60;;;;;;5092460;28;20398;-63
2022/07/20 07:48:09;;;;;;;15.68;11.93;;;26.80;83.60;;;;;;5121415;27;20052;-63
2022/07/20 07:50:40;;;;;;;19.98;13.13;;;26.80;84.10;;;;;;5092473;28;20035;-64
2022/07/20 07:53:07;;;;;;;18.98;12.43;;;26.80;84.50;;;;;;5092632;28;20035;-63
2022/07/20 07:55:39;;;;;;;23.42;14.60;;;26.90;85.30;;;;;;5094383;28;20044;-62
2022/07/20 07:58:06;;;;;;;21.05;13.13;;;26.90;85.30;;;;;;5093856;28;20115;-63
2022/07/20 08:00:33;;;;;;;29.42;15.73;;;27.10;86.00;;;;;;5094982;28;20047;-63
2022/07/20 08:02:59;;;;;;;24.45;15.60;;;27.10;85.90;;;;;;5091939;28;20048;-64
2022/07/20 08:05:25;;;;;;;22.10;16.00;;;27.10;86.90;;;;;;5091679;28;20386;-64
2022/07/20 08:07:50;;;;;;;24.25;15.50;;;27.00;86.70;;;;;;5092621;28;20044;-62
2022/07/20 08:10:16;;;;;;;25.38;15.30;;;27.10;87.70;;;;;;5093787;28;20047;-63
2022/07/20 08:12:43;;;;;;;26.83;17.48;;;27.20;88.00;;;;;;5098401;28;20390;-63
2022/07/20 08:15:10;;;;;;;23.10;17.30;;;27.20;88.30;;;;;;5091840;28;20044;-63
2022/07/20 08:17:35;;;;;;;29.25;18.63;;;27.20;88.40;;;;;;5092649;28;20020;-63
2022/07/20 08:20:04;;;;;;;29.13;18.30;;;27.20;88.40;;;;;;5087654;28;20039;-63
2022/07/20 08:22:30;;;;;;;26.63;18.40;;;27.20;88.20;;;;;;5096933;28;20032;-63
2022/07/20 08:24:56;;;;;;;28.45;18.00;;;27.20;88.60;;;;;;5092456;28;20050;-63
2022/07/20 08:27:21;;;;;;;27.52;18.80;;;27.20;87.40;;;;;;5092738;28;20039;-63
2022/07/20 08:29:47;;;;;;;24.95;18.70;;;27.20;86.70;;;;;;5091791;28;20394;-63
2022/07/20 08:32:13;;;;;;;23.63;18.55;;;27.30;87.00;;;;;;5094023;28;20036;-63
2022/07/20 08:34:39;;;;;;;29.13;18.70;;;27.40;86.50;;;;;;5090823;28;20046;-63
2022/07/20 08:37:05;;;;;;;26.95;19.20;;;27.50;86.20;;;;;;5094318;28;20494;-63
2022/07/20 08:39:30;;;;;;;27.65;19.35;;;27.50;86.30;;;;;;5123687;27;20092;-63
2022/07/20 08:41:56;;;;;;;31.13;19.48;;;27.50;86.70;;;;;;5105828;28;20058;-64
2022/07/20 08:44:22;;;;;;;29.80;19.40;;;27.60;86.80;;;;;;5091787;28;20040;-63
2022/07/20 08:46:48;;;;;;;24.13;19.10;;;27.60;85.80;;;;;;5093269;28;20032;-63
2022/07/20 08:49:14;;;;;;;29.52;20.15;;;27.70;85.70;;;;;;5092638;28;20097;-64
2022/07/20 08:51:41;;;;;;;29.80;20.13;;;27.80;85.80;;;;;;5083603;28;20089;-63
2022/07/20 08:54:07;;;;;;;29.10;20.45;;;27.90;84.90;;;;;;5093843;28;20058;-64
2022/07/20 08:56:34;;;;;;;28.98;20.02;;;27.90;85.10;;;;;;5090805;28;20044;-63
2022/07/20 08:59:00;;;;;;;29.35;21.17;;;27.90;84.90;;;;;;5120796;27;20054;-64
2022/07/20 09:01:26;;;;;;;28.85;20.30;;;27.90;85.50;;;;;;5091819;28;20467;-63
2022/07/20 09:04:11;;;;;;;29.55;19.33;;;27.90;85.40;;;;;;5091321;28;20111;-63
2022/07/20 09:06:48;;;;;;;30.13;17.83;;;27.70;84.90;;;;;;5091834;28;20069;-63
2022/07/20 09:09:14;;;;;;;24.13;17.40;;;27.60;83.50;;;;;;5089186;28;20067;-63
2022/07/20 09:11:39;;;;;;;22.50;16.13;;;27.60;83.20;;;;;;5090931;28;20059;-63
2022/07/20 09:14:05;;;;;;;23.75;16.98;;;27.70;83.00;;;;;;5088055;28;20047;-64
2022/07/20 09:16:40;;;;;;;25.20;16.30;;;27.60;84.00;;;;;;5091010;28;20518;-63
2022/07/20 09:19:06;;;;;;;24.83;17.50;;;27.60;83.90;;;;;;5089309;28;20040;-63
2022/07/20 09:21:33;;;;;;;25.42;16.20;;;27.70;83.50;;;;;;5092091;28;20059;-63
2022/07/20 09:24:04;;;;;;;24.92;16.58;;;27.70;83.70;;;;;;5091301;28;20036;-63
2022/07/20 09:26:31;;;;;;;25.40;15.70;;;27.70;83.90;;;;;;5090753;28;20475;-63
2022/07/20 09:28:58;;;;;;;23.83;16.30;;;27.70;83.30;;;;;;5090213;28;20097;-63
2022/07/20 09:31:28;;;;;;;26.63;15.90;;;27.90;83.50;;;;;;5089854;28;20079;-63
2022/07/20 09:33:57;;;;;;;20.05;15.85;;;28.00;84.10;;;;;;5088605;28;20044;-63
2022/07/20 09:36:25;;;;;;;22.45;15.57;;;28.00;82.70;;;;;;5094154;28;20070;-63
2022/07/20 09:38:51;;;;;;;21.85;15.73;;;28.00;83.10;;;;;;5090133;28;20036;-63
2022/07/20 09:41:23;;;;;;;20.23;15.23;;;28.10;82.80;;;;;;5091528;28;20047;-63
2022/07/20 09:43:49;;;;;;;17.90;14.68;;;28.30;82.80;;;;;;5088838;28;20388;-63
2022/07/20 09:46:17;;;;;;;20.20;13.48;;;28.30;81.10;;;;;;5089181;28;20031;-63
2022/07/20 09:48:48;;;;;;;17.73;12.85;;;28.30;81.30;;;;;;5090311;28;20047;-63
2022/07/20 09:51:56;;;;;;;18.08;13.13;;;28.40;81.80;;;;;;5089034;28;20036;-63
2022/07/20 09:54:22;;;;;;;19.63;13.13;;;28.40;81.30;;;;;;5090917;28;20434;-63
2022/07/20 09:56:50;;;;;;;17.52;12.13;;;28.40;82.10;;;;;;5120752;27;20064;-63
2022/07/20 09:59:18;;;;;;;18.45;12.20;;;28.70;82.80;;;;;;5089401;28;20093;-63
2022/07/20 10:01:46;;;;;;;18.02;12.05;;;28.80;82.70;;;;;;5089561;28;20040;-63
2022/07/20 10:04:13;;;;;;;14.57;10.80;;;28.80;81.40;;;;;;5090154;28;20111;-63
2022/07/20 10:06:43;;;;;;;17.08;9.98;;;28.90;80.50;;;;;;5090211;28;20038;-63
2022/07/20 10:09:10;;;;;;;17.15;9.75;;;28.70;79.70;;;;;;5088801;28;20040;-63
2022/07/20 10:11:36;;;;;;;15.60;9.95;;;28.90;79.40;;;;;;5089168;28;20035;-63
2022/07/20 10:14:04;;;;;;;16.05;9.68;;;28.80;78.40;;;;;;5089993;28;20093;-63
2022/07/20 10:16:29;;;;;;;14.10;9.50;;;28.80;79.10;;;;;;5090663;28;20047;-63
2022/07/20 10:18:56;;;;;;;13.52;9.30;;;28.70;79.30;;;;;;5089932;28;20048;-63
2022/07/20 10:21:38;;;;;;;15.32;9.70;;;28.90;79.70;;;;;;5088139;28;20055;-63
2022/07/20 10:24:27;;;;;;;16.13;9.75;;;29.10;79.10;;;;;;5089780;28;20046;-63
2022/07/20 10:27:16;;;;;;;16.15;9.48;;;29.10;77.70;;;;;;5090595;28;20158;-63
2022/07/20 10:29:52;;;;;;;18.58;9.68;;;29.00;78.20;;;;;;5078183;28;20046;-64
2022/07/20 10:32:28;;;;;;;13.50;9.20;;;29.10;79.60;;;;;;5088939;28;20036;-63
2022/07/20 10:34:55;;;;;;;16.60;9.35;;;29.30;78.80;;;;;;5089666;28;20028;-63
2022/07/20 10:37:23;;;;;;;16.58;9.05;;;29.20;77.40;;;;;;5093422;28;20059;-62
2022/07/20 10:40:10;;;;;;;15.43;9.20;;;29.40;78.00;;;;;;5090777;28;20133;-64
2022/07/20 10:42:52;;;;;;;14.98;10.00;;;29.40;77.70;;;;;;5101058;28;20237;-63
2022/07/20 10:45:19;;;;;;;13.20;9.27;;;29.60;77.80;;;;;;5087688;28;20067;-64
2022/07/20 10:47:52;;;;;;;13.98;9.32;;;29.70;78.20;;;;;;5072037;28;20513;-63
2022/07/20 10:50:44;;;;;;;14.13;9.40;;;29.70;77.90;;;;;;5088871;28;20043;-64
2022/07/20 10:53:10;;;;;;;13.93;9.48;;;29.90;78.20;;;;;;5083440;28;20051;-63
2022/07/20 10:55:36;;;;;;;13.35;9.40;;;29.90;77.20;;;;;;5088703;28;20031;-63
2022/07/20 10:58:07;;;;;;;12.05;9.68;;;29.90;78.00;;;;;;5089273;28;20040;-63
2022/07/20 11:00:47;;;;;;;14.52;8.85;;;29.90;77.50;;;;;;5088697;28;20065;-63
2022/07/20 11:03:22;;;;;;;12.63;8.43;;;30.00;76.30;;;;;;5088253;28;20043;-63
2022/07/20 11:06:02;;;;;;;13.07;8.32;;;30.00;75.90;;;;;;5087943;28;20040;-64
2022/07/20 11:08:27;;;;;;;10.88;7.93;;;29.80;75.60;;;;;;5088065;28;20039;-63
2022/07/20 11:10:55;;;;;;;10.45;7.97;;;29.70;75.90;;;;;;5088370;28;20394;-63
2022/07/20 11:13:21;;;;;;;9.27;7.35;;;29.80;75.60;;;;;;5088795;28;20094;-62
2022/07/20 11:15:53;;;;;;;11.18;7.70;;;29.80;74.90;;;;;;5090583;28;20063;-63
2022/07/20 11:18:22;;;;;;;10.77;7.07;;;29.70;74.40;;;;;;5089580;28;20119;-63
2022/07/20 11:21:13;;;;;;;10.65;6.93;;;29.90;75.20;;;;;;5093416;28;20093;-63
2022/07/20 11:23:48;;;;;;;7.65;6.53;;;29.80;74.70;;;;;;5090062;28;20044;-64
2022/07/20 11:26:15;;;;;;;12.00;6.68;;;29.60;74.40;;;;;;5093419;28;20036;-63
2022/07/20 11:28:52;;;;;;;13.73;7.00;;;29.70;74.80;;;;;;5093690;28;20039;-63
2022/07/20 11:31:21;;;;;;;9.88;6.53;;;29.50;74.00;;;;;;5096307;28;20043;-63
2022/07/20 11:33:49;;;;;;;8.50;7.30;;;29.30;74.20;;;;;;5091857;28;20036;-64
2022/07/20 11:36:19;;;;;;;8.02;6.22;;;29.10;74.70;;;;;;5092542;28;20047;-63
2022/07/20 11:39:00;;;;;;;10.63;6.75;;;29.00;75.90;;;;;;5089739;28;20052;-63
2022/07/20 11:41:34;;;;;;;10.73;6.75;;;29.00;75.80;;;;;;5091946;28;20204;-63
2022/07/20 11:44:01;;;;;;;12.07;6.80;;;29.10;75.10;;;;;;5088154;28;20046;-63
2022/07/20 11:46:29;;;;;;;12.18;7.43;;;29.10;75.50;;;;;;5091748;28;20072;-63
2022/07/20 11:48:56;;;;;;;11.15;7.20;;;29.10;75.30;;;;;;5093200;28;20040;-63
2022/07/20 11:51:22;;;;;;;10.10;7.10;;;29.00;75.20;;;;;;5096039;28;20044;-63
2022/07/20 11:53:49;;;;;;;11.63;7.45;;;28.90;74.50;;;;;;5092914;28;20135;-63
2022/07/20 11:56:20;;;;;;;13.43;7.75;;;28.90;75.30;;;;;;5091512;28;20032;-62
2022/07/20 11:58:49;;;;;;;12.25;8.10;;;29.00;76.00;;;;;;5092221;28;20509;-63
2022/07/20 12:01:20;;;;;;;10.20;7.75;;;29.10;75.80;;;;;;5097344;28;20028;-63
2022/07/20 12:03:55;;;;;;;10.47;8.17;;;29.20;76.90;;;;;;5091750;28;20555;-63
2022/07/20 12:06:21;;;;;;;9.65;7.97;;;29.30;75.50;;;;;;5093336;28;20320;-63
2022/07/20 12:09:10;;;;;;;11.88;8.95;;;29.30;76.20;;;;;;5092403;28;20410;-62
2022/07/20 12:11:52;;;;;;;10.95;9.02;;;29.30;76.00;;;;;;5091614;28;20075;-63
2022/07/20 12:14:37;;;;;;;12.52;8.80;;;29.10;75.30;;;;;;5092749;28;20050;-63
2022/07/20 12:17:23;;;;;;;16.38;8.60;;;29.10;74.20;;;;;;5091336;28;20132;-63
2022/07/20 12:19:51;;;;;;;9.95;7.95;;;29.10;74.00;;;;;;5075724;28;20103;-63
2022/07/20 12:22:54;;;;;;;10.73;7.90;;;28.90;73.40;;;;;;5092638;28;20063;-63
2022/07/20 12:25:19;;;;;;;8.80;7.35;;;28.90;73.20;;;;;;5033146;28;20052;-63
2022/07/20 12:27:46;;;;;;;10.70;6.93;;;29.00;74.30;;;;;;5049547;28;20491;-62
2022/07/20 12:30:28;;;;;;;10.07;7.50;;;29.00;74.10;;;;;;5044156;28;20098;-63
2022/07/20 12:33:07;;;;;;;8.27;6.78;;;29.00;74.90;;;;;;5027148;28;20608;-62
2022/07/20 12:35:34;;;;;;;10.20;6.82;;;29.10;74.80;;;;;;5046396;28;20055;-63
2022/07/20 12:38:00;;;;;;;6.82;5.60;;;29.10;74.10;;;;;;5044634;28;20064;-63
2022/07/20 12:40:45;;;;;;;6.65;4.32;;;29.00;73.50;;;;;;5012327;28;20451;-63
2022/07/20 12:43:30;;;;;;;5.97;4.43;;;28.90;72.70;;;;;;5041280;28;20480;-62
2022/07/20 12:46:01;;;;;;;6.45;4.80;;;29.00;73.00;;;;;;5028807;28;20045;-64
2022/07/20 12:48:27;;;;;;;6.53;4.93;;;29.00;74.00;;;;;;5029195;28;20124;-63